RJSO(METAR)
08/24 02:00
METAR RJSO 231700Z 22005KT 190V250 9999 FEW030 20/18 Q1002 RMK
1CU030 A2961=
戻る
トップページへ戻る
IMOC Co,.Ltd.